sensor_id;sensor_type;location;lat;lon;timestamp;temperature;humidity
33093;DHT22;19456;46.104;12.908;2022-12-29T00:02:10;7.40;99.90
33093;DHT22;19456;46.104;12.908;2022-12-29T00:04:36;7.20;99.90
33093;DHT22;19456;46.104;12.908;2022-12-29T00:07:02;7.20;99.90
33093;DHT22;19456;46.104;12.908;2022-12-29T00:09:30;7.30;99.90
33093;DHT22;19456;46.104;12.908;2022-12-29T00:11:55;7.40;99.90
33093;DHT22;19456;46.104;12.908;2022-12-29T00:14:21;7.40;99.90
33093;DHT22;19456;46.104;12.908;2022-12-29T00:17:05;7.40;99.90
33093;DHT22;19456;46.104;12.908;2022-12-29T00:19:33;7.30;99.90
33093;DHT22;19456;46.104;12.908;2022-12-29T00:22:18;7.40;99.90
33093;DHT22;19456;46.104;12.908;2022-12-29T00:25:02;7.40;99.90
33093;DHT22;19456;46.104;12.908;2022-12-29T00:27:46;7.40;99.90
33093;DHT22;19456;46.104;12.908;2022-12-29T00:30:31;7.40;99.90
33093;DHT22;19456;46.104;12.908;2022-12-29T00:33:16;7.40;99.90
33093;DHT22;19456;46.104;12.908;2022-12-29T00:36:01;7.40;99.90
33093;DHT22;19456;46.104;12.908;2022-12-29T00:38:28;7.50;99.90
33093;DHT22;19456;46.104;12.908;2022-12-29T00:41:12;7.40;99.90
33093;DHT22;19456;46.104;12.908;2022-12-29T00:43:57;7.40;99.90
33093;DHT22;19456;46.104;12.908;2022-12-29T00:46:35;7.50;99.90
33093;DHT22;19456;46.104;12.908;2022-12-29T00:49:01;7.50;99.90
33093;DHT22;19456;46.104;12.908;2022-12-29T00:51:45;7.50;99.90
33093;DHT22;19456;46.104;12.908;2022-12-29T00:54:11;7.50;99.90
33093;DHT22;19456;46.104;12.908;2022-12-29T00:56:37;7.40;99.90
33093;DHT22;19456;46.104;12.908;2022-12-29T00:59:06;7.40;99.90
33093;DHT22;19456;46.104;12.908;2022-12-29T01:01:32;7.40;99.90
33093;DHT22;19456;46.104;12.908;2022-12-29T01:03:58;7.40;99.90
33093;DHT22;19456;46.104;12.908;2022-12-29T01:06:23;7.40;99.90
33093;DHT22;19456;46.104;12.908;2022-12-29T01:08:50;7.30;99.90
33093;DHT22;19456;46.104;12.908;2022-12-29T01:11:35;7.20;99.90
33093;DHT22;19456;46.104;12.908;2022-12-29T01:14:01;7.20;99.90
33093;DHT22;19456;46.104;12.908;2022-12-29T01:16:26;7.20;99.90
33093;DHT22;19456;46.104;12.908;2022-12-29T01:18:52;7.20;99.90
33093;DHT22;19456;46.104;12.908;2022-12-29T01:21:17;7.30;99.90
33093;DHT22;19456;46.104;12.908;2022-12-29T01:23:43;7.20;99.90
33093;DHT22;19456;46.104;12.908;2022-12-29T01:26:09;7.20;99.90
33093;DHT22;19456;46.104;12.908;2022-12-29T01:28:34;7.20;99.90
33093;DHT22;19456;46.104;12.908;2022-12-29T01:31:00;7.20;99.90
33093;DHT22;19456;46.104;12.908;2022-12-29T01:33:26;7.10;99.90
33093;DHT22;19456;46.104;12.908;2022-12-29T01:35:51;7.10;99.90
33093;DHT22;19456;46.104;12.908;2022-12-29T01:38:17;7.20;99.90
33093;DHT22;19456;46.104;12.908;2022-12-29T01:40:43;7.20;99.90
33093;DHT22;19456;46.104;12.908;2022-12-29T01:43:10;7.40;99.90
33093;DHT22;19456;46.104;12.908;2022-12-29T01:45:36;7.50;99.90
33093;DHT22;19456;46.104;12.908;2022-12-29T01:48:02;7.50;99.90
33093;DHT22;19456;46.104;12.908;2022-12-29T01:50:32;7.50;99.90
33093;DHT22;19456;46.104;12.908;2022-12-29T01:52:59;7.50;99.90
33093;DHT22;19456;46.104;12.908;2022-12-29T01:55:26;7.60;99.90
33093;DHT22;19456;46.104;12.908;2022-12-29T01:57:52;7.70;99.90
33093;DHT22;19456;46.104;12.908;2022-12-29T02:00:18;7.60;99.90
33093;DHT22;19456;46.104;12.908;2022-12-29T02:02:50;7.60;99.90
33093;DHT22;19456;46.104;12.908;2022-12-29T02:05:22;7.70;99.90
33093;DHT22;19456;46.104;12.908;2022-12-29T02:07:48;7.70;99.90
33093;DHT22;19456;46.104;12.908;2022-12-29T02:10:15;7.70;99.90
33093;DHT22;19456;46.104;12.908;2022-12-29T02:12:40;7.60;99.90
33093;DHT22;19456;46.104;12.908;2022-12-29T02:15:06;7.60;99.90
33093;DHT22;19456;46.104;12.908;2022-12-29T02:22:41;7.50;99.90
33093;DHT22;19456;46.104;12.908;2022-12-29T02:32:31;7.40;99.90
33093;DHT22;19456;46.104;12.908;2022-12-29T02:35:04;7.40;99.90
33093;DHT22;19456;46.104;12.908;2022-12-29T02:37:39;7.50;99.90
33093;DHT22;19456;46.104;12.908;2022-12-29T02:40:06;7.50;99.90
33093;DHT22;19456;46.104;12.908;2022-12-29T02:42:44;7.60;99.90
33093;DHT22;19456;46.104;12.908;2022-12-29T02:50:17;7.60;99.90
33093;DHT22;19456;46.104;12.908;2022-12-29T02:52:49;7.60;99.90
33093;DHT22;19456;46.104;12.908;2022-12-29T02:55:16;7.50;99.90
33093;DHT22;19456;46.104;12.908;2022-12-29T02:57:41;7.40;99.90
33093;DHT22;19456;46.104;12.908;2022-12-29T03:00:11;7.30;99.90
33093;DHT22;19456;46.104;12.908;2022-12-29T03:12:56;7.20;99.90
33093;DHT22;19456;46.104;12.908;2022-12-29T03:15:43;7.20;99.90
33093;DHT22;19456;46.104;12.908;2022-12-29T03:21:01;7.20;99.90
33093;DHT22;19456;46.104;12.908;2022-12-29T03:23:28;7.00;99.90
33093;DHT22;19456;46.104;12.908;2022-12-29T03:25:55;7.00;99.90
33093;DHT22;19456;46.104;12.908;2022-12-29T03:28:22;6.80;99.90
33093;DHT22;19456;46.104;12.908;2022-12-29T03:30:49;6.60;99.90
33093;DHT22;19456;46.104;12.908;2022-12-29T03:33:17;6.40;99.90
33093;DHT22;19456;46.104;12.908;2022-12-29T03:35:43;6.30;99.90
33093;DHT22;19456;46.104;12.908;2022-12-29T03:38:23;6.20;99.90
33093;DHT22;19456;46.104;12.908;2022-12-29T03:40:52;6.00;99.90
33093;DHT22;19456;46.104;12.908;2022-12-29T03:43:18;6.00;99.90
33093;DHT22;19456;46.104;12.908;2022-12-29T03:45:44;6.00;99.90
33093;DHT22;19456;46.104;12.908;2022-12-29T03:48:09;6.00;99.90
33093;DHT22;19456;46.104;12.908;2022-12-29T03:50:35;6.10;99.90
33093;DHT22;19456;46.104;12.908;2022-12-29T03:53:00;6.10;99.90
33093;DHT22;19456;46.104;12.908;2022-12-29T03:55:26;6.10;99.90
33093;DHT22;19456;46.104;12.908;2022-12-29T03:57:51;6.20;99.90
33093;DHT22;19456;46.104;12.908;2022-12-29T04:00:17;6.30;99.90
33093;DHT22;19456;46.104;12.908;2022-12-29T04:02:42;6.20;99.90
33093;DHT22;19456;46.104;12.908;2022-12-29T04:05:08;6.30;99.90
33093;DHT22;19456;46.104;12.908;2022-12-29T04:07:33;6.40;99.90
33093;DHT22;19456;46.104;12.908;2022-12-29T04:09:59;6.50;99.90
33093;DHT22;19456;46.104;12.908;2022-12-29T04:12:24;6.50;99.90
33093;DHT22;19456;46.104;12.908;2022-12-29T04:14:50;6.60;99.90
33093;DHT22;19456;46.104;12.908;2022-12-29T04:17:15;6.70;99.90
33093;DHT22;19456;46.104;12.908;2022-12-29T04:19:41;6.60;99.90
33093;DHT22;19456;46.104;12.908;2022-12-29T04:22:06;6.60;99.90
33093;DHT22;19456;46.104;12.908;2022-12-29T04:24:32;6.70;99.90
33093;DHT22;19456;46.104;12.908;2022-12-29T04:26:57;6.60;99.90
33093;DHT22;19456;46.104;12.908;2022-12-29T04:29:23;6.30;99.90
33093;DHT22;19456;46.104;12.908;2022-12-29T04:31:48;6.00;99.90
33093;DHT22;19456;46.104;12.908;2022-12-29T04:34:14;5.90;99.90
33093;DHT22;19456;46.104;12.908;2022-12-29T04:36:39;5.90;99.90
33093;DHT22;19456;46.104;12.908;2022-12-29T04:39:05;5.90;99.90
33093;DHT22;19456;46.104;12.908;2022-12-29T04:41:31;5.90;99.90
33093;DHT22;19456;46.104;12.908;2022-12-29T04:43:56;6.00;99.90
33093;DHT22;19456;46.104;12.908;2022-12-29T04:46:22;6.10;99.90
33093;DHT22;19456;46.104;12.908;2022-12-29T04:48:47;6.30;99.90
33093;DHT22;19456;46.104;12.908;2022-12-29T04:51:13;6.40;99.90
33093;DHT22;19456;46.104;12.908;2022-12-29T04:53:38;6.40;99.90
33093;DHT22;19456;46.104;12.908;2022-12-29T04:56:04;6.30;99.90
33093;DHT22;19456;46.104;12.908;2022-12-29T04:58:30;6.20;99.90
33093;DHT22;19456;46.104;12.908;2022-12-29T05:00:55;6.10;99.90
33093;DHT22;19456;46.104;12.908;2022-12-29T05:03:20;6.10;99.90
33093;DHT22;19456;46.104;12.908;2022-12-29T05:05:46;6.10;99.90
33093;DHT22;19456;46.104;12.908;2022-12-29T05:08:11;6.20;99.90
33093;DHT22;19456;46.104;12.908;2022-12-29T05:10:37;6.20;99.90
33093;DHT22;19456;46.104;12.908;2022-12-29T05:13:03;6.20;99.90
33093;DHT22;19456;46.104;12.908;2022-12-29T05:15:28;6.20;99.90
33093;DHT22;19456;46.104;12.908;2022-12-29T05:17:54;6.30;99.90
33093;DHT22;19456;46.104;12.908;2022-12-29T05:20:19;6.20;99.90
33093;DHT22;19456;46.104;12.908;2022-12-29T05:22:45;6.20;99.90
33093;DHT22;19456;46.104;12.908;2022-12-29T05:25:10;6.20;99.90
33093;DHT22;19456;46.104;12.908;2022-12-29T05:27:36;6.20;99.90
33093;DHT22;19456;46.104;12.908;2022-12-29T05:30:02;6.20;99.90
33093;DHT22;19456;46.104;12.908;2022-12-29T05:32:27;6.30;99.90
33093;DHT22;19456;46.104;12.908;2022-12-29T05:34:53;6.40;99.90
33093;DHT22;19456;46.104;12.908;2022-12-29T05:37:18;6.50;99.90
33093;DHT22;19456;46.104;12.908;2022-12-29T05:39:44;6.60;99.90
33093;DHT22;19456;46.104;12.908;2022-12-29T05:42:09;6.70;99.90
33093;DHT22;19456;46.104;12.908;2022-12-29T05:44:35;6.80;99.90
33093;DHT22;19456;46.104;12.908;2022-12-29T05:47:00;6.90;99.90
33093;DHT22;19456;46.104;12.908;2022-12-29T05:49:26;6.90;99.90
33093;DHT22;19456;46.104;12.908;2022-12-29T05:51:52;7.00;99.90
33093;DHT22;19456;46.104;12.908;2022-12-29T05:54:17;7.00;99.90
33093;DHT22;19456;46.104;12.908;2022-12-29T05:56:43;7.10;99.90
33093;DHT22;19456;46.104;12.908;2022-12-29T05:59:08;7.10;99.90
33093;DHT22;19456;46.104;12.908;2022-12-29T06:01:34;7.10;99.90
33093;DHT22;19456;46.104;12.908;2022-12-29T06:03:59;7.00;99.90
33093;DHT22;19456;46.104;12.908;2022-12-29T06:06:25;6.90;99.90
33093;DHT22;19456;46.104;12.908;2022-12-29T06:08:50;6.90;99.90
33093;DHT22;19456;46.104;12.908;2022-12-29T06:11:16;6.80;99.90
33093;DHT22;19456;46.104;12.908;2022-12-29T06:13:41;6.80;99.90
33093;DHT22;19456;46.104;12.908;2022-12-29T06:16:07;6.70;99.90
33093;DHT22;19456;46.104;12.908;2022-12-29T06:18:33;6.80;99.90
33093;DHT22;19456;46.104;12.908;2022-12-29T06:21:01;6.80;99.90
33093;DHT22;19456;46.104;12.908;2022-12-29T06:23:27;6.90;99.90
33093;DHT22;19456;46.104;12.908;2022-12-29T06:25:55;6.90;99.90
33093;DHT22;19456;46.104;12.908;2022-12-29T06:28:20;7.00;99.90
33093;DHT22;19456;46.104;12.908;2022-12-29T06:30:46;7.10;99.90
33093;DHT22;19456;46.104;12.908;2022-12-29T06:33:12;7.00;99.90
33093;DHT22;19456;46.104;12.908;2022-12-29T06:35:38;7.00;99.90
33093;DHT22;19456;46.104;12.908;2022-12-29T06:38:03;7.00;99.90
33093;DHT22;19456;46.104;12.908;2022-12-29T06:40:29;7.10;99.90
33093;DHT22;19456;46.104;12.908;2022-12-29T06:42:55;7.10;99.90
33093;DHT22;19456;46.104;12.908;2022-12-29T06:45:20;7.00;99.90
33093;DHT22;19456;46.104;12.908;2022-12-29T06:47:46;7.00;99.90
33093;DHT22;19456;46.104;12.908;2022-12-29T06:50:12;7.00;99.90
33093;DHT22;19456;46.104;12.908;2022-12-29T06:52:37;7.00;99.90
33093;DHT22;19456;46.104;12.908;2022-12-29T06:55:03;7.10;99.90
33093;DHT22;19456;46.104;12.908;2022-12-29T06:57:29;7.10;99.90
33093;DHT22;19456;46.104;12.908;2022-12-29T06:59:54;7.10;99.90
33093;DHT22;19456;46.104;12.908;2022-12-29T07:02:21;7.10;99.90
33093;DHT22;19456;46.104;12.908;2022-12-29T07:04:46;7.10;99.90
33093;DHT22;19456;46.104;12.908;2022-12-29T07:07:12;7.20;99.90
33093;DHT22;19456;46.104;12.908;2022-12-29T07:09:37;7.20;99.90
33093;DHT22;19456;46.104;12.908;2022-12-29T07:12:03;7.20;99.90
33093;DHT22;19456;46.104;12.908;2022-12-29T07:14:28;7.20;99.90
33093;DHT22;19456;46.104;12.908;2022-12-29T07:16:54;7.20;99.90
33093;DHT22;19456;46.104;12.908;2022-12-29T07:19:19;7.30;99.90
33093;DHT22;19456;46.104;12.908;2022-12-29T07:21:45;7.30;99.90
33093;DHT22;19456;46.104;12.908;2022-12-29T07:24:11;7.30;99.90
33093;DHT22;19456;46.104;12.908;2022-12-29T07:26:36;7.30;99.90
33093;DHT22;19456;46.104;12.908;2022-12-29T07:29:02;7.30;99.90
33093;DHT22;19456;46.104;12.908;2022-12-29T07:31:30;7.40;99.90
33093;DHT22;19456;46.104;12.908;2022-12-29T07:33:58;7.50;99.90
33093;DHT22;19456;46.104;12.908;2022-12-29T07:36:24;7.50;99.90
33093;DHT22;19456;46.104;12.908;2022-12-29T07:38:49;7.50;99.90
33093;DHT22;19456;46.104;12.908;2022-12-29T07:41:15;7.70;99.90
33093;DHT22;19456;46.104;12.908;2022-12-29T07:43:40;7.70;99.90
33093;DHT22;19456;46.104;12.908;2022-12-29T07:46:06;7.70;99.90
33093;DHT22;19456;46.104;12.908;2022-12-29T07:48:31;7.60;99.90
33093;DHT22;19456;46.104;12.908;2022-12-29T07:50:58;7.70;99.90
33093;DHT22;19456;46.104;12.908;2022-12-29T07:53:24;7.60;99.90
33093;DHT22;19456;46.104;12.908;2022-12-29T07:55:49;7.60;99.90
33093;DHT22;19456;46.104;12.908;2022-12-29T07:58:15;7.60;99.90
33093;DHT22;19456;46.104;12.908;2022-12-29T08:00:40;7.60;99.90
33093;DHT22;19456;46.104;12.908;2022-12-29T08:03:06;7.60;99.90
33093;DHT22;19456;46.104;12.908;2022-12-29T08:05:32;7.60;99.90
33093;DHT22;19456;46.104;12.908;2022-12-29T08:07:58;7.60;99.90
33093;DHT22;19456;46.104;12.908;2022-12-29T08:10:24;7.60;99.90
33093;DHT22;19456;46.104;12.908;2022-12-29T08:12:49;7.70;99.90
33093;DHT22;19456;46.104;12.908;2022-12-29T08:15:15;7.80;99.90
33093;DHT22;19456;46.104;12.908;2022-12-29T08:17:40;8.00;99.90
33093;DHT22;19456;46.104;12.908;2022-12-29T08:20:06;8.10;99.90
33093;DHT22;19456;46.104;12.908;2022-12-29T08:22:32;8.20;99.90
33093;DHT22;19456;46.104;12.908;2022-12-29T08:24:57;8.20;99.90
33093;DHT22;19456;46.104;12.908;2022-12-29T08:27:23;8.10;99.90
33093;DHT22;19456;46.104;12.908;2022-12-29T08:29:48;8.00;99.90
33093;DHT22;19456;46.104;12.908;2022-12-29T08:32:14;8.00;99.90
33093;DHT22;19456;46.104;12.908;2022-12-29T08:34:40;8.00;99.90
33093;DHT22;19456;46.104;12.908;2022-12-29T08:37:05;8.00;99.90
33093;DHT22;19456;46.104;12.908;2022-12-29T08:39:31;8.10;99.90
33093;DHT22;19456;46.104;12.908;2022-12-29T08:41:56;8.10;99.90
33093;DHT22;19456;46.104;12.908;2022-12-29T08:44:22;8.20;99.90
33093;DHT22;19456;46.104;12.908;2022-12-29T08:46:48;8.30;99.90
33093;DHT22;19456;46.104;12.908;2022-12-29T08:49:13;8.40;99.90
33093;DHT22;19456;46.104;12.908;2022-12-29T08:51:39;8.50;99.90
33093;DHT22;19456;46.104;12.908;2022-12-29T08:54:04;8.50;99.90
33093;DHT22;19456;46.104;12.908;2022-12-29T08:56:30;8.50;99.90
33093;DHT22;19456;46.104;12.908;2022-12-29T08:58:55;8.60;99.90
33093;DHT22;19456;46.104;12.908;2022-12-29T09:01:21;8.70;99.90
33093;DHT22;19456;46.104;12.908;2022-12-29T09:03:46;8.80;99.90
33093;DHT22;19456;46.104;12.908;2022-12-29T09:06:13;8.90;99.90
33093;DHT22;19456;46.104;12.908;2022-12-29T09:08:38;8.90;99.90
33093;DHT22;19456;46.104;12.908;2022-12-29T09:11:11;9.00;99.90
33093;DHT22;19456;46.104;12.908;2022-12-29T09:13:37;9.00;99.90
33093;DHT22;19456;46.104;12.908;2022-12-29T09:16:02;9.00;99.90
33093;DHT22;19456;46.104;12.908;2022-12-29T09:18:28;9.00;99.90
33093;DHT22;19456;46.104;12.908;2022-12-29T09:20:57;9.00;99.90
33093;DHT22;19456;46.104;12.908;2022-12-29T09:23:23;9.20;99.90
33093;DHT22;19456;46.104;12.908;2022-12-29T09:25:48;9.20;99.90
33093;DHT22;19456;46.104;12.908;2022-12-29T09:28:14;9.30;99.90
33093;DHT22;19456;46.104;12.908;2022-12-29T09:30:39;9.40;99.90
33093;DHT22;19456;46.104;12.908;2022-12-29T09:33:05;9.50;99.90
33093;DHT22;19456;46.104;12.908;2022-12-29T09:35:30;9.60;99.90
33093;DHT22;19456;46.104;12.908;2022-12-29T09:37:56;9.60;99.90
33093;DHT22;19456;46.104;12.908;2022-12-29T09:40:23;9.60;99.90
33093;DHT22;19456;46.104;12.908;2022-12-29T09:42:58;9.60;99.90
33093;DHT22;19456;46.104;12.908;2022-12-29T09:45:32;9.80;99.90
33093;DHT22;19456;46.104;12.908;2022-12-29T09:48:00;9.90;99.90
33093;DHT22;19456;46.104;12.908;2022-12-29T09:50:28;9.90;99.90
33093;DHT22;19456;46.104;12.908;2022-12-29T09:55:40;10.10;99.90
33093;DHT22;19456;46.104;12.908;2022-12-29T10:00:50;10.10;99.90
33093;DHT22;19456;46.104;12.908;2022-12-29T10:03:18;10.20;99.90
33093;DHT22;19456;46.104;12.908;2022-12-29T10:05:56;10.20;99.90
33093;DHT22;19456;46.104;12.908;2022-12-29T10:11:19;10.30;99.90
33093;DHT22;19456;46.104;12.908;2022-12-29T10:18:51;10.20;99.90
33093;DHT22;19456;46.104;12.908;2022-12-29T10:24:03;10.30;99.90
33093;DHT22;19456;46.104;12.908;2022-12-29T10:26:32;10.40;99.90
33093;DHT22;19456;46.104;12.908;2022-12-29T10:29:20;10.40;99.90
33093;DHT22;19456;46.104;12.908;2022-12-29T10:31:49;10.50;99.90
33093;DHT22;19456;46.104;12.908;2022-12-29T10:34:21;10.70;99.90
33093;DHT22;19456;46.104;12.908;2022-12-29T10:36:48;10.80;99.90
33093;DHT22;19456;46.104;12.908;2022-12-29T10:39:30;11.00;99.90
33093;DHT22;19456;46.104;12.908;2022-12-29T10:42:18;11.10;99.90
33093;DHT22;19456;46.104;12.908;2022-12-29T10:44:46;11.10;99.90
33093;DHT22;19456;46.104;12.908;2022-12-29T10:47:18;11.10;99.90
33093;DHT22;19456;46.104;12.908;2022-12-29T10:49:46;11.10;99.90
33093;DHT22;19456;46.104;12.908;2022-12-29T10:52:13;11.20;99.90
33093;DHT22;19456;46.104;12.908;2022-12-29T10:57:33;11.50;99.90
33093;DHT22;19456;46.104;12.908;2022-12-29T10:59:59;11.40;99.90
33093;DHT22;19456;46.104;12.908;2022-12-29T11:07:51;11.40;99.90
33093;DHT22;19456;46.104;12.908;2022-12-29T11:10:20;11.60;99.90
33093;DHT22;19456;46.104;12.908;2022-12-29T11:12:59;11.50;99.90
33093;DHT22;19456;46.104;12.908;2022-12-29T11:15:26;11.40;99.90
33093;DHT22;19456;46.104;12.908;2022-12-29T11:17:53;11.40;99.90
33093;DHT22;19456;46.104;12.908;2022-12-29T11:22:47;11.50;99.90
33093;DHT22;19456;46.104;12.908;2022-12-29T11:25:13;11.50;99.90
33093;DHT22;19456;46.104;12.908;2022-12-29T11:27:38;11.60;99.90
33093;DHT22;19456;46.104;12.908;2022-12-29T11:30:11;11.50;99.90
33093;DHT22;19456;46.104;12.908;2022-12-29T11:32:50;11.50;99.90
33093;DHT22;19456;46.104;12.908;2022-12-29T11:35:29;11.40;99.90
33093;DHT22;19456;46.104;12.908;2022-12-29T11:37:56;11.40;99.90
33093;DHT22;19456;46.104;12.908;2022-12-29T11:40:22;11.50;99.90
33093;DHT22;19456;46.104;12.908;2022-12-29T11:45:15;11.60;99.90
33093;DHT22;19456;46.104;12.908;2022-12-29T11:47:42;11.70;99.90
33093;DHT22;19456;46.104;12.908;2022-12-29T11:50:16;11.60;99.90
33093;DHT22;19456;46.104;12.908;2022-12-29T11:52:42;11.60;99.90
33093;DHT22;19456;46.104;12.908;2022-12-29T11:55:16;11.60;99.90
33093;DHT22;19456;46.104;12.908;2022-12-29T11:57:42;11.60;99.90
33093;DHT22;19456;46.104;12.908;2022-12-29T12:00:18;11.50;99.90
33093;DHT22;19456;46.104;12.908;2022-12-29T12:07:40;11.80;99.90
33093;DHT22;19456;46.104;12.908;2022-12-29T12:10:06;11.90;99.90
33093;DHT22;19456;46.104;12.908;2022-12-29T12:12:47;12.40;99.90
33093;DHT22;19456;46.104;12.908;2022-12-29T12:15:19;13.10;99.90
33093;DHT22;19456;46.104;12.908;2022-12-29T12:17:53;13.70;99.90
33093;DHT22;19456;46.104;12.908;2022-12-29T12:23:19;13.90;99.90
33093;DHT22;19456;46.104;12.908;2022-12-29T12:25:51;14.20;99.90
33093;DHT22;19456;46.104;12.908;2022-12-29T12:28:21;13.80;99.90
33093;DHT22;19456;46.104;12.908;2022-12-29T12:30:52;14.50;99.90
33093;DHT22;19456;46.104;12.908;2022-12-29T12:33:34;15.20;99.90
33093;DHT22;19456;46.104;12.908;2022-12-29T12:46:34;14.10;99.90
33093;DHT22;19456;46.104;12.908;2022-12-29T12:49:23;14.00;99.90
33093;DHT22;19456;46.104;12.908;2022-12-29T12:59:25;13.60;99.90
33093;DHT22;19456;46.104;12.908;2022-12-29T13:02:01;13.50;99.90
33093;DHT22;19456;46.104;12.908;2022-12-29T13:12:08;12.10;99.90
33093;DHT22;19456;46.104;12.908;2022-12-29T13:14:42;12.00;99.90
33093;DHT22;19456;46.104;12.908;2022-12-29T13:19:41;11.80;99.90
33093;DHT22;19456;46.104;12.908;2022-12-29T13:24:42;11.70;99.90
33093;DHT22;19456;46.104;12.908;2022-12-29T13:27:24;11.80;99.90
33093;DHT22;19456;46.104;12.908;2022-12-29T13:29:57;11.90;99.90
33093;DHT22;19456;46.104;12.908;2022-12-29T13:35:02;12.30;99.90
33093;DHT22;19456;46.104;12.908;2022-12-29T13:37:33;12.20;99.90
33093;DHT22;19456;46.104;12.908;2022-12-29T13:40:04;12.10;99.90
33093;DHT22;19456;46.104;12.908;2022-12-29T13:42:35;12.00;99.90
33093;DHT22;19456;46.104;12.908;2022-12-29T13:45:02;12.00;99.90
33093;DHT22;19456;46.104;12.908;2022-12-29T13:49:54;11.70;99.90
33093;DHT22;19456;46.104;12.908;2022-12-29T13:55:00;11.50;99.90
33093;DHT22;19456;46.104;12.908;2022-12-29T14:00:20;11.40;99.90
33093;DHT22;19456;46.104;12.908;2022-12-29T14:07:47;11.30;99.90
33093;DHT22;19456;46.104;12.908;2022-12-29T14:10:29;11.40;99.90
33093;DHT22;19456;46.104;12.908;2022-12-29T14:13:06;11.40;99.90
33093;DHT22;19456;46.104;12.908;2022-12-29T14:15:37;11.50;99.90
33093;DHT22;19456;46.104;12.908;2022-12-29T14:18:22;11.50;99.90
33093;DHT22;19456;46.104;12.908;2022-12-29T14:20:53;11.50;99.90
33093;DHT22;19456;46.104;12.908;2022-12-29T14:23:27;11.40;99.90
33093;DHT22;19456;46.104;12.908;2022-12-29T14:28:26;11.20;99.90
33093;DHT22;19456;46.104;12.908;2022-12-29T14:30:52;11.10;99.90
33093;DHT22;19456;46.104;12.908;2022-12-29T14:33:19;11.00;99.90
33093;DHT22;19456;46.104;12.908;2022-12-29T14:35:45;10.90;99.90
33093;DHT22;19456;46.104;12.908;2022-12-29T14:38:18;10.80;99.90
33093;DHT22;19456;46.104;12.908;2022-12-29T14:40:45;10.70;99.90
33093;DHT22;19456;46.104;12.908;2022-12-29T14:43:11;10.60;99.90
33093;DHT22;19456;46.104;12.908;2022-12-29T14:45:38;10.60;99.90
33093;DHT22;19456;46.104;12.908;2022-12-29T14:50:49;10.70;99.90
33093;DHT22;19456;46.104;12.908;2022-12-29T14:55:59;10.70;99.90
33093;DHT22;19456;46.104;12.908;2022-12-29T14:58:29;10.70;99.90
33093;DHT22;19456;46.104;12.908;2022-12-29T15:00:56;10.60;99.90
33093;DHT22;19456;46.104;12.908;2022-12-29T15:08:23;10.30;99.90
33093;DHT22;19456;46.104;12.908;2022-12-29T15:10:53;10.30;99.90
33093;DHT22;19456;46.104;12.908;2022-12-29T15:13:24;10.30;99.90
33093;DHT22;19456;46.104;12.908;2022-12-29T15:15:50;10.40;99.90
33093;DHT22;19456;46.104;12.908;2022-12-29T15:18:31;10.40;99.90
33093;DHT22;19456;46.104;12.908;2022-12-29T15:20:58;10.50;99.90
33093;DHT22;19456;46.104;12.908;2022-12-29T15:23:24;10.50;99.90
33093;DHT22;19456;46.104;12.908;2022-12-29T15:25:57;10.50;99.90
33093;DHT22;19456;46.104;12.908;2022-12-29T15:28:24;10.50;99.90
33093;DHT22;19456;46.104;12.908;2022-12-29T15:30:53;10.50;99.90
33093;DHT22;19456;46.104;12.908;2022-12-29T15:33:20;10.40;99.90
33093;DHT22;19456;46.104;12.908;2022-12-29T15:35:49;10.40;99.90
33093;DHT22;19456;46.104;12.908;2022-12-29T15:38:19;10.40;99.90
33093;DHT22;19456;46.104;12.908;2022-12-29T15:40:45;10.50;99.90
33093;DHT22;19456;46.104;12.908;2022-12-29T15:45:56;10.50;99.90
33093;DHT22;19456;46.104;12.908;2022-12-29T15:48:22;10.40;99.90
33093;DHT22;19456;46.104;12.908;2022-12-29T15:50:48;10.40;99.90
33093;DHT22;19456;46.104;12.908;2022-12-29T15:53:24;10.30;99.90
33093;DHT22;19456;46.104;12.908;2022-12-29T15:55:54;10.20;99.90
33093;DHT22;19456;46.104;12.908;2022-12-29T15:58:21;10.20;99.90
33093;DHT22;19456;46.104;12.908;2022-12-29T16:00:49;10.20;99.90
33093;DHT22;19456;46.104;12.908;2022-12-29T16:03:14;10.20;99.90
33093;DHT22;19456;46.104;12.908;2022-12-29T16:05:40;10.20;99.90
33093;DHT22;19456;46.104;12.908;2022-12-29T16:10:50;10.20;99.90
33093;DHT22;19456;46.104;12.908;2022-12-29T16:15:47;10.20;99.90
33093;DHT22;19456;46.104;12.908;2022-12-29T16:18:21;10.10;99.90
33093;DHT22;19456;46.104;12.908;2022-12-29T16:20:48;10.10;99.90
33093;DHT22;19456;46.104;12.908;2022-12-29T16:23:17;10.10;99.90
33093;DHT22;19456;46.104;12.908;2022-12-29T16:25:44;10.10;99.90
33093;DHT22;19456;46.104;12.908;2022-12-29T16:31:13;10.00;99.90
33093;DHT22;19456;46.104;12.908;2022-12-29T16:33:46;10.00;99.90
33093;DHT22;19456;46.104;12.908;2022-12-29T16:36:21;10.10;99.90
33093;DHT22;19456;46.104;12.908;2022-12-29T16:38:47;10.10;99.90
33093;DHT22;19456;46.104;12.908;2022-12-29T16:41:25;10.10;99.90
33093;DHT22;19456;46.104;12.908;2022-12-29T16:44:10;10.20;99.90
33093;DHT22;19456;46.104;12.908;2022-12-29T16:46:37;10.20;99.90
33093;DHT22;19456;46.104;12.908;2022-12-29T16:49:07;10.20;99.90
33093;DHT22;19456;46.104;12.908;2022-12-29T16:51:39;10.20;99.90
33093;DHT22;19456;46.104;12.908;2022-12-29T16:54:05;10.10;99.90
33093;DHT22;19456;46.104;12.908;2022-12-29T16:56:35;9.90;99.90
33093;DHT22;19456;46.104;12.908;2022-12-29T17:01:27;9.60;99.90
33093;DHT22;19456;46.104;12.908;2022-12-29T17:03:53;9.60;99.90
33093;DHT22;19456;46.104;12.908;2022-12-29T17:06:20;9.60;99.90
33093;DHT22;19456;46.104;12.908;2022-12-29T17:08:46;9.70;99.90
33093;DHT22;19456;46.104;12.908;2022-12-29T17:11:19;9.60;99.90
33093;DHT22;19456;46.104;12.908;2022-12-29T17:14:04;9.50;99.90
33093;DHT22;19456;46.104;12.908;2022-12-29T17:16:29;9.40;99.90
33093;DHT22;19456;46.104;12.908;2022-12-29T17:18:55;9.30;99.90
33093;DHT22;19456;46.104;12.908;2022-12-29T17:21:20;9.20;99.90
33093;DHT22;19456;46.104;12.908;2022-12-29T17:23:46;9.30;99.90
33093;DHT22;19456;46.104;12.908;2022-12-29T17:26:11;9.40;99.90
33093;DHT22;19456;46.104;12.908;2022-12-29T17:28:37;9.40;99.90
33093;DHT22;19456;46.104;12.908;2022-12-29T17:31:03;9.50;99.90
33093;DHT22;19456;46.104;12.908;2022-12-29T17:33:35;9.60;99.90
33093;DHT22;19456;46.104;12.908;2022-12-29T17:36:01;9.70;99.90
33093;DHT22;19456;46.104;12.908;2022-12-29T17:38:28;9.70;99.90
33093;DHT22;19456;46.104;12.908;2022-12-29T17:40:54;9.70;99.90
33093;DHT22;19456;46.104;12.908;2022-12-29T17:43:19;9.80;99.90
33093;DHT22;19456;46.104;12.908;2022-12-29T17:45:52;9.80;99.90
33093;DHT22;19456;46.104;12.908;2022-12-29T17:48:18;9.80;99.90
33093;DHT22;19456;46.104;12.908;2022-12-29T17:50:47;9.70;99.90
33093;DHT22;19456;46.104;12.908;2022-12-29T17:53:20;9.70;99.90